createdAt,value
2023-03-15T02:17:16.258Z,2.09
2023-03-15T02:22:49.254Z,2.14
2023-03-15T02:28:17.262Z,2.04
2023-03-15T02:33:48.237Z,1.97
2023-03-15T02:39:21.239Z,1.83
2023-03-15T02:44:53.225Z,1.66
2023-03-15T02:50:19.308Z,1.54
2023-03-15T02:55:44.257Z,1.27
2023-03-15T03:01:14.281Z,1.21
2023-03-15T03:06:39.281Z,1.26
2023-03-15T03:12:09.240Z,1.23
2023-03-15T03:17:37.334Z,1.27
2023-03-15T03:23:02.255Z,1.19
2023-03-15T03:28:28.294Z,1.22
2023-03-15T03:33:58.362Z,1.08
2023-03-15T03:39:23.250Z,1.00
2023-03-15T03:44:53.300Z,0.97
2023-03-15T03:50:26.346Z,0.89
2023-03-15T03:55:50.267Z,0.85
2023-03-15T04:01:18.506Z,0.86
2023-03-15T04:06:52.277Z,0.98
2023-03-15T04:12:25.338Z,0.70
2023-03-15T04:17:51.268Z,0.55
2023-03-15T04:23:26.309Z,0.45
2023-03-15T04:28:54.305Z,0.32
2023-03-15T04:34:45.286Z,0.19
2023-03-15T04:40:31.373Z,0.09
2023-03-15T04:46:17.361Z,0.11
2023-03-15T04:51:57.304Z,0.09
2023-03-15T04:57:41.314Z,0.05
2023-03-15T05:03:26.311Z,0.07
2023-03-15T05:09:10.586Z,0.06
2023-03-15T05:15:11.464Z,0.07
2023-03-15T05:21:02.456Z,0.07
2023-03-15T05:26:34.278Z,0.08
2023-03-15T05:32:21.403Z,0.06
2023-03-15T06:29:31.354Z,0.32
2023-03-15T06:34:56.309Z,0.44
2023-03-15T06:40:23.548Z,0.55
2023-03-15T06:45:51.338Z,0.67
2023-03-15T06:51:16.346Z,0.77
2023-03-15T07:02:28.407Z,0.85
2023-03-15T07:07:55.378Z,0.91
2023-03-15T07:13:28.362Z,0.96
2023-03-15T07:24:39.345Z,1.08
2023-03-15T07:30:04.536Z,1.19
2023-03-15T07:35:48.425Z,1.23
2023-03-15T07:41:17.440Z,1.26
2023-03-15T07:46:53.427Z,1.26
2023-03-15T07:52:19.445Z,1.28
2023-03-15T07:57:53.326Z,1.36
2023-03-15T08:08:56.572Z,1.49
2023-03-15T08:14:24.354Z,1.54
2023-03-15T08:19:49.384Z,1.59
2023-03-15T08:25:16.469Z,1.65
2023-03-15T08:30:44.411Z,1.80
2023-03-15T08:36:11.458Z,1.92
2023-03-15T08:41:37.566Z,1.95
2023-03-15T08:47:06.637Z,2.02
2023-03-15T08:52:35.406Z,2.45
2023-03-15T08:58:07.502Z,2.35
2023-03-15T09:03:39.374Z,2.21
2023-03-15T09:14:26.380Z,2.09
2023-03-15T09:19:57.649Z,2.11
2023-03-15T09:25:22.393Z,2.11
2023-03-15T09:30:50.452Z,2.11
2023-03-15T09:36:17.425Z,1.92
2023-03-15T09:41:51.392Z,1.77
2023-03-15T09:47:33.492Z,1.76
2023-03-15T09:53:08.691Z,1.76
2023-03-15T09:58:42.381Z,1.86
2023-03-15T10:04:17.394Z,1.90
2023-03-15T10:09:49.954Z,1.83
2023-03-15T10:15:38.571Z,1.83
2023-03-15T10:21:11.495Z,2.01
2023-03-15T10:32:12.518Z,2.30
2023-03-15T10:37:37.403Z,2.55
2023-03-15T10:43:04.450Z,2.76
2023-03-15T10:48:29.447Z,2.85
2023-03-15T10:54:12.300Z,2.65
2023-03-15T10:59:42.675Z,1.94
2023-03-15T11:05:16.441Z,1.70
2023-03-15T11:10:44.447Z,1.74
2023-03-15T11:16:17.539Z,1.72
2023-03-15T11:21:46.497Z,1.89
2023-03-15T11:27:13.466Z,1.75
2023-03-15T11:32:42.489Z,1.65
2023-03-15T11:38:15.338Z,1.51
2023-03-15T11:43:52.809Z,1.59
2023-03-15T11:49:31.504Z,1.60
2023-03-15T11:54:57.464Z,1.64
2023-03-15T12:00:36.481Z,1.81
2023-03-15T12:06:11.477Z,1.74
2023-03-15T12:11:54.853Z,1.21
2023-03-15T12:17:49.508Z,0.75
2023-03-15T12:23:37.481Z,0.71
2023-03-15T12:29:22.485Z,0.70
2023-03-15T12:34:55.613Z,0.74
2023-03-15T12:40:50.484Z,0.97
2023-03-15T12:46:16.549Z,1.19
2023-03-15T12:51:59.718Z,1.56
2023-03-15T12:57:30.487Z,1.92
2023-03-15T13:03:02.070Z,2.12
2023-03-15T13:08:32.513Z,2.36
2023-03-15T13:14:26.717Z,2.53
2023-03-15T13:19:54.465Z,2.63
2023-03-15T13:25:24.527Z,2.73
2023-03-15T13:31:05.610Z,2.86
2023-03-15T13:36:32.500Z,2.96
2023-03-15T13:41:57.633Z,3.26
2023-03-15T13:47:31.521Z,3.65
2023-03-15T13:52:57.505Z,3.65
2023-03-15T13:58:23.563Z,3.84
2023-03-15T14:03:52.545Z,4.38
2023-03-15T14:09:20.567Z,4.35
2023-03-15T14:14:46.503Z,4.15
2023-03-15T14:20:18.748Z,3.90
2023-03-15T14:25:42.574Z,3.84
2023-03-15T14:31:09.547Z,3.91
2023-03-15T14:36:44.536Z,3.90
2023-03-15T14:42:09.569Z,4.46
2023-03-15T14:47:36.256Z,5.17
2023-03-15T14:53:09.880Z,5.22
2023-03-15T14:58:36.556Z,5.50
2023-03-15T15:04:05.568Z,5.59
2023-03-15T15:09:33.530Z,5.75
2023-03-15T15:14:58.867Z,5.91
2023-03-15T15:20:30.629Z,5.73
2023-03-15T15:26:06.532Z,5.63
2023-03-15T15:31:33.613Z,5.57
2023-03-15T15:36:53.534Z,5.91
2023-03-15T15:42:20.721Z,6.09
2023-03-15T15:47:45.552Z,5.09
2023-03-15T15:53:11.631Z,4.69
2023-03-15T15:58:39.569Z,4.68
2023-03-15T16:04:03.551Z,4.43
2023-03-15T16:09:23.560Z,3.72
2023-03-15T16:14:52.593Z,3.24
2023-03-15T16:20:18.591Z,3.32
2023-03-15T16:25:46.546Z,3.45
2023-03-15T16:31:13.665Z,3.41
2023-03-15T16:36:41.635Z,3.22
2023-03-15T16:42:05.607Z,3.33
2023-03-15T16:47:33.670Z,3.12
2023-03-15T16:52:59.635Z,3.04
2023-03-15T16:58:27.595Z,2.81
2023-03-15T17:04:03.331Z,2.68
2023-03-15T17:09:31.620Z,2.59
2023-03-15T17:14:55.647Z,2.46
2023-03-15T17:20:28.643Z,2.20
2023-03-15T17:25:53.686Z,2.09
2023-03-15T17:31:25.296Z,2.07
2023-03-15T17:36:53.606Z,2.01
2023-03-15T17:42:27.611Z,1.91
2023-03-15T17:47:52.558Z,1.84
2023-03-15T17:53:21.587Z,1.78
2023-03-15T17:58:46.627Z,1.71
2023-03-15T18:04:11.623Z,1.59
2023-03-15T18:09:39.647Z,1.23
2023-03-15T18:15:05.737Z,1.17
2023-03-15T18:20:30.592Z,1.11
2023-03-15T18:25:58.580Z,1.02
2023-03-15T18:31:25.809Z,0.99
2023-03-15T18:36:50.595Z,0.94
2023-03-15T18:42:18.574Z,0.84
2023-03-15T18:47:42.582Z,0.71
2023-03-15T18:53:07.601Z,0.63
2023-03-15T18:58:35.628Z,0.51
2023-03-15T19:04:02.626Z,0.43
2023-03-15T19:09:26.632Z,0.30
2023-03-15T19:14:54.634Z,0.28
2023-03-15T19:20:18.617Z,0.23
2023-03-15T19:25:43.626Z,0.21
2023-03-15T19:31:10.680Z,0.23
2023-03-15T19:36:35.770Z,0.21
2023-03-15T19:42:06.850Z,0.23
2023-03-15T19:47:34.630Z,0.26
2023-03-15T19:52:58.684Z,0.24
2023-03-15T19:58:23.614Z,0.17
2023-03-15T20:03:50.695Z,0.06
2023-03-15T20:09:09.685Z,-0.05
2023-03-15T20:14:35.632Z,-0.14
2023-03-15T20:20:03.675Z,-0.23
2023-03-15T20:25:29.618Z,-0.32
2023-03-15T20:30:54.687Z,-0.39
2023-03-15T20:36:22.639Z,-0.50
2023-03-15T20:41:53.713Z,-0.57
2023-03-15T20:47:18.640Z,-0.65
2023-03-15T20:52:46.654Z,-0.72
2023-03-15T20:58:11.637Z,-0.82
2023-03-15T21:03:37.717Z,-0.87
2023-03-15T21:09:05.666Z,-0.92
2023-03-15T21:14:30.891Z,-0.96
2023-03-15T21:19:55.683Z,-1.01
2023-03-15T21:25:23.685Z,-1.02
2023-03-15T21:30:48.654Z,-1.05
2023-03-15T21:36:13.648Z,-1.10
2023-03-15T21:41:48.673Z,-1.11
2023-03-15T21:47:13.692Z,-1.13
2023-03-15T21:52:32.899Z,-1.13
2023-03-15T21:58:00.758Z,-1.18
2023-03-15T22:03:25.653Z,-1.22
2023-03-15T22:08:49.681Z,-1.26
2023-03-15T22:14:17.666Z,-1.31
2023-03-15T22:19:41.827Z,-1.36
2023-03-15T22:25:06.650Z,-1.36
2023-03-15T22:30:33.872Z,-1.38
2023-03-15T22:36:03.684Z,-1.40
2023-03-15T22:41:27.692Z,-1.43
2023-03-15T22:46:55.668Z,-1.45
2023-03-15T22:52:21.695Z,-1.48
2023-03-15T23:03:10.802Z,-1.53
2023-03-15T23:08:35.711Z,-1.58
2023-03-15T23:13:59.758Z,-1.64
2023-03-15T23:19:28.700Z,-1.68
2023-03-15T23:24:53.737Z,-1.70
2023-03-15T23:30:20.722Z,-1.76
2023-03-15T23:35:48.771Z,-1.82
2023-03-15T23:41:14.719Z,-1.83
2023-03-15T23:46:43.441Z,-1.87
2023-03-15T23:52:12.846Z,-1.90
2023-03-15T23:57:38.733Z,-1.93
